首页
METAR-TAF:

METAR-TAF

机场 :

Marshfield Municipal Airport

Marshfield, 威斯康辛州, 美国

纬度: 44-38-17N, 经度: 090-11-15W, 海拔: 389米

当前天气观测

该预报发布于1小时和2分钟前的17:54 UTC
风速10节,风向北转东北,有时为21节阵风
温度 23°C
湿度 44%
气压 1022 hPa
能見度: 16.1公里
少量云层高于6000英尺

METAR: KMFI 221754Z AUTO 02010G21KT 10SM FEW060 23/10 A3017 RMK AO2 SLP212 T02280100 10233 20156 55002

时间: 13:56 (18:56 UTC)


TAF: 丢失

超过4000个机场的气象观测和天气预报(METAR&TAF报告)。

可查询的气象台以黄色和红色小点在地图上表示。

将鼠标移到小点上方,可查看气象台名称。

然后点击查看天气观测和预报。

如需切换地图:点击带黑十字的绿色按钮放大地图;点击带横线的绿色按钮缩小地图;或者点击绿色箭头查看邻近地区的地图。


METAR-TAF: